Time;durP1;ratioP1;P1;durP2;ratioP2;P2;SDS_P1;SDS_P2;PMS_P1;PMS_P2;Temp;Humidity;BMP_temperature;BMP_pressure;BME280_temperature;BME280_humidity;BME280_pressure;Samples;Min_cycle;Max_cycle;Signal;HPM_P1;HPM_P2
2022/08/31 00:05:49;;;;;;;1.73;0.60;;;16.70;99.90;;;;;;5101068;27;20043;-80
2022/08/31 00:08:15;;;;;;;3.08;0.60;;;16.70;99.90;;;;;;5091219;28;20046;-81
2022/08/31 00:10:44;;;;;;;1.75;0.60;;;16.60;99.90;;;;;;5106426;27;20070;-81
2022/08/31 00:13:11;;;;;;;1.58;0.50;;;16.60;99.90;;;;;;5082578;27;20040;-81
2022/08/31 00:15:38;;;;;;;2.30;0.73;;;16.60;99.90;;;;;;5076189;28;20080;-81
2022/08/31 00:18:04;;;;;;;1.40;0.45;;;16.60;99.90;;;;;;5078026;27;20054;-81
2022/08/31 00:20:30;;;;;;;1.33;0.55;;;16.50;99.90;;;;;;5093662;27;20035;-81
2022/08/31 00:22:56;;;;;;;1.08;0.60;;;16.50;99.90;;;;;;5081433;27;20062;-81
2022/08/31 00:25:22;;;;;;;1.23;0.57;;;16.50;99.90;;;;;;5098272;27;20051;-80
2022/08/31 00:27:49;;;;;;;1.92;0.80;;;16.50;99.20;;;;;;5096585;28;20043;-81
2022/08/31 00:30:15;;;;;;;2.05;0.40;;;16.50;99.00;;;;;;5076846;27;20039;-81
2022/08/31 00:32:41;;;;;;;1.42;0.80;;;16.50;98.50;;;;;;5090036;28;20063;-81
2022/08/31 00:35:07;;;;;;;2.58;0.60;;;16.50;98.50;;;;;;5067354;27;20116;-81
2022/08/31 00:37:33;;;;;;;1.50;0.50;;;16.50;98.20;;;;;;5101126;27;20047;-81
2022/08/31 00:39:59;;;;;;;2.03;0.50;;;16.40;98.10;;;;;;5083662;28;20146;-81
2022/08/31 00:42:25;;;;;;;1.88;0.45;;;16.40;97.70;;;;;;5090834;28;20036;-80
2022/08/31 00:44:51;;;;;;;2.08;0.68;;;16.40;97.90;;;;;;5087137;28;20081;-80
2022/08/31 00:47:17;;;;;;;0.50;0.28;;;16.40;98.00;;;;;;5068310;27;20039;-80
2022/08/31 00:49:48;;;;;;;1.92;0.47;;;16.30;97.80;;;;;;5096498;28;20502;-81
2022/08/31 00:52:28;;;;;;;1.55;0.60;;;16.30;97.70;;;;;;5093242;28;20568;-80
2022/08/31 00:54:58;;;;;;;1.30;0.50;;;16.30;97.70;;;;;;5089771;28;20494;-80
2022/08/31 00:57:30;;;;;;;1.30;0.52;;;16.20;97.40;;;;;;5121245;27;20039;-81
2022/08/31 00:59:58;;;;;;;1.67;0.40;;;16.20;97.30;;;;;;5094722;28;20409;-81
2022/08/31 01:02:24;;;;;;;1.45;0.50;;;16.20;97.20;;;;;;5113755;28;20065;-80
2022/08/31 01:04:50;;;;;;;1.95;0.63;;;16.20;97.20;;;;;;5076668;28;20522;-81
2022/08/31 01:07:16;;;;;;;1.73;0.50;;;16.10;97.20;;;;;;5078452;28;20054;-80
2022/08/31 01:09:42;;;;;;;1.02;0.47;;;16.10;97.10;;;;;;5063356;28;20036;-81
2022/08/31 01:12:09;;;;;;;2.20;0.50;;;16.00;97.20;;;;;;5083291;28;20517;-81
2022/08/31 01:14:40;;;;;;;2.15;0.50;;;16.00;97.30;;;;;;5095922;28;20711;-80
2022/08/31 01:17:09;;;;;;;1.85;0.50;;;16.00;97.30;;;;;;5080360;28;20450;-80
2022/08/31 01:19:57;;;;;;;1.00;0.47;;;15.90;97.50;;;;;;5092641;28;20044;-80
2022/08/31 01:22:33;;;;;;;1.42;0.40;;;15.90;97.60;;;;;;5104603;28;20136;-80
2022/08/31 01:25:00;;;;;;;1.30;0.60;;;15.80;97.70;;;;;;5098307;28;20047;-80
2022/08/31 01:27:31;;;;;;;0.88;0.40;;;15.80;97.40;;;;;;5056778;28;20154;-80
2022/08/31 01:30:05;;;;;;;1.70;0.60;;;15.80;97.50;;;;;;5089468;28;20043;-79
2022/08/31 01:32:32;;;;;;;1.23;0.50;;;15.70;97.50;;;;;;5112172;27;20296;-80
2022/08/31 01:34:57;;;;;;;0.90;0.50;;;15.70;97.40;;;;;;5091754;27;20103;-80
2022/08/31 01:37:23;;;;;;;1.08;0.30;;;15.70;97.30;;;;;;5066623;28;20035;-81
2022/08/31 01:39:50;;;;;;;1.40;0.45;;;15.70;97.40;;;;;;5095324;28;20039;-79
2022/08/31 01:42:17;;;;;;;1.40;0.45;;;15.60;97.30;;;;;;5096538;28;20059;-80
2022/08/31 01:44:43;;;;;;;1.77;0.40;;;15.60;97.30;;;;;;5098690;27;20779;-80
2022/08/31 01:47:10;;;;;;;0.82;0.40;;;15.50;97.40;;;;;;5083274;28;20047;-80
2022/08/31 01:49:39;;;;;;;1.25;0.50;;;15.50;97.40;;;;;;5096839;27;20044;-80
2022/08/31 01:52:05;;;;;;;0.80;0.40;;;15.50;97.20;;;;;;5111586;27;20055;-80
2022/08/31 01:54:31;;;;;;;1.63;0.47;;;15.40;97.30;;;;;;5120739;27;20104;-79
2022/08/31 01:56:57;;;;;;;0.93;0.30;;;15.40;97.40;;;;;;5103056;27;20118;-80
2022/08/31 01:59:23;;;;;;;2.05;0.30;;;15.40;97.40;;;;;;5098201;27;20126;-78
2022/08/31 02:01:52;;;;;;;1.65;0.55;;;15.40;97.60;;;;;;5117692;27;20043;-80
2022/08/31 02:04:20;;;;;;;1.70;0.43;;;15.30;97.50;;;;;;5124714;27;20082;-81
2022/08/31 02:06:49;;;;;;;0.80;0.50;;;15.20;97.60;;;;;;5120671;27;20039;-80
2022/08/31 02:09:16;;;;;;;0.93;0.30;;;15.20;97.80;;;;;;5106591;27;20039;-80
2022/08/31 02:11:42;;;;;;;0.70;0.35;;;15.20;98.00;;;;;;5096796;27;20097;-81
2022/08/31 02:14:09;;;;;;;1.38;0.45;;;15.10;98.20;;;;;;5107683;27;20054;-81
2022/08/31 02:16:36;;;;;;;1.25;0.32;;;15.00;98.30;;;;;;5103501;27;20047;-80
2022/08/31 02:19:04;;;;;;;1.42;0.40;;;15.00;98.50;;;;;;5120242;27;20052;-81
2022/08/31 02:21:31;;;;;;;1.10;0.40;;;14.90;98.80;;;;;;5105780;28;20046;-80
2022/08/31 02:23:57;;;;;;;1.23;0.30;;;14.90;99.10;;;;;;5106861;27;20042;-81
2022/08/31 02:26:23;;;;;;;1.05;0.38;;;14.80;99.50;;;;;;5127765;27;20129;-80
2022/08/31 02:28:49;;;;;;;1.23;0.40;;;14.80;99.80;;;;;;5104919;27;20509;-80
2022/08/31 02:31:15;;;;;;;1.10;0.40;;;14.70;99.90;;;;;;5104490;27;20035;-81
2022/08/31 02:33:41;;;;;;;2.28;0.30;;;14.60;99.90;;;;;;5095012;27;20066;-80
2022/08/31 02:36:11;;;;;;;0.77;0.40;;;14.60;99.90;;;;;;5079700;28;20107;-80
2022/08/31 02:38:38;;;;;;;0.68;0.30;;;14.60;99.90;;;;;;5092852;27;20047;-78
2022/08/31 02:41:04;;;;;;;1.85;0.40;;;14.50;99.90;;;;;;5105148;27;20616;-80
2022/08/31 02:43:31;;;;;;;0.75;0.30;;;14.50;99.90;;;;;;5081516;27;20043;-80
2022/08/31 02:45:56;;;;;;;2.28;0.40;;;14.30;99.90;;;;;;5110070;27;20508;-80
2022/08/31 02:48:23;;;;;;;0.95;0.40;;;14.30;99.90;;;;;;5089370;28;20077;-80
2022/08/31 02:50:50;;;;;;;1.10;0.40;;;14.20;99.90;;;;;;5081678;27;20079;-80
2022/08/31 02:53:20;;;;;;;1.73;0.40;;;14.20;99.90;;;;;;5103113;27;20050;-80
2022/08/31 02:55:45;;;;;;;0.88;0.40;;;14.20;99.90;;;;;;5126283;27;20054;-80
2022/08/31 02:58:12;;;;;;;1.67;0.50;;;14.10;99.90;;;;;;5106287;27;20036;-79
2022/08/31 03:00:43;;;;;;;1.83;0.40;;;14.10;99.90;;;;;;5120161;27;20035;-80
2022/08/31 03:03:09;;;;;;;1.23;0.45;;;14.00;99.90;;;;;;5117355;27;20043;-80
2022/08/31 03:05:34;;;;;;;2.10;0.40;;;14.00;99.90;;;;;;5082366;27;20042;-81
2022/08/31 03:08:00;;;;;;;2.20;0.50;;;13.90;99.90;;;;;;5099366;28;20486;-80
2022/08/31 03:10:26;;;;;;;1.75;0.50;;;13.90;99.90;;;;;;5075860;28;20039;-80
2022/08/31 03:12:53;;;;;;;1.48;0.50;;;13.90;99.90;;;;;;5101104;27;20048;-80
2022/08/31 03:15:21;;;;;;;0.73;0.35;;;13.80;99.90;;;;;;5092170;28;20043;-80
2022/08/31 03:17:47;;;;;;;1.73;0.43;;;13.80;99.90;;;;;;5091999;28;20206;-80
2022/08/31 03:20:15;;;;;;;1.70;0.50;;;13.80;99.90;;;;;;5117853;27;20555;-79
2022/08/31 03:22:40;;;;;;;2.35;0.50;;;13.80;99.90;;;;;;5100673;27;20057;-79
2022/08/31 03:25:07;;;;;;;0.75;0.50;;;13.70;99.90;;;;;;5093507;27;20047;-79
2022/08/31 03:27:33;;;;;;;1.70;0.70;;;13.70;99.90;;;;;;5097147;27;20041;-79
2022/08/31 03:29:59;;;;;;;2.47;0.55;;;13.60;99.90;;;;;;5117319;27;20145;-78
2022/08/31 03:32:26;;;;;;;1.15;0.52;;;13.60;99.90;;;;;;5102052;27;20675;-80
2022/08/31 03:34:54;;;;;;;2.05;0.40;;;13.60;99.90;;;;;;5100551;28;20032;-80
2022/08/31 03:37:20;;;;;;;1.60;0.30;;;13.50;99.90;;;;;;5077118;28;20055;-80
2022/08/31 03:39:46;;;;;;;1.95;0.50;;;13.50;99.90;;;;;;5089586;28;20066;-80
2022/08/31 03:42:12;;;;;;;1.40;0.40;;;13.50;99.90;;;;;;5084523;27;20398;-80
2022/08/31 03:44:38;;;;;;;1.08;0.60;;;13.50;99.90;;;;;;5092575;27;20039;-81
2022/08/31 03:47:10;;;;;;;2.05;0.52;;;13.40;99.90;;;;;;5087314;27;20051;-81
2022/08/31 03:49:38;;;;;;;2.13;0.60;;;13.40;99.90;;;;;;5106626;27;20045;-80
2022/08/31 03:52:07;;;;;;;1.38;0.45;;;13.40;99.90;;;;;;5124926;27;20043;-81
2022/08/31 03:54:34;;;;;;;1.00;0.60;;;13.30;99.90;;;;;;5104721;27;20043;-80
2022/08/31 03:57:00;;;;;;;1.60;0.75;;;13.30;99.90;;;;;;5088381;28;20059;-80
2022/08/31 03:59:26;;;;;;;1.38;0.60;;;13.30;99.90;;;;;;5103361;27;20035;-80
2022/08/31 04:01:52;;;;;;;2.33;0.60;;;13.30;99.90;;;;;;5101830;27;20118;-81
2022/08/31 04:04:18;;;;;;;2.20;0.70;;;13.20;99.90;;;;;;5078484;28;20051;-80
2022/08/31 04:06:44;;;;;;;1.52;0.63;;;13.20;99.90;;;;;;5081513;28;20040;-80
2022/08/31 04:09:10;;;;;;;1.20;0.60;;;13.20;99.90;;;;;;5088245;27;20047;-80
2022/08/31 04:11:40;;;;;;;5.05;0.70;;;13.10;99.90;;;;;;5075467;28;20065;-80
2022/08/31 04:14:24;;;;;;;1.85;0.60;;;13.10;99.90;;;;;;5076071;28;20202;-80
2022/08/31 04:16:50;;;;;;;1.52;0.60;;;13.10;99.90;;;;;;5096714;27;20047;-80
2022/08/31 04:19:16;;;;;;;3.17;0.60;;;13.00;99.90;;;;;;5071053;27;20062;-80
2022/08/31 04:21:42;;;;;;;2.85;0.80;;;13.00;99.90;;;;;;5084095;28;20065;-80
2022/08/31 04:24:10;;;;;;;1.88;0.80;;;13.00;99.90;;;;;;5104607;27;20126;-81
2022/08/31 04:26:37;;;;;;;1.00;0.50;;;13.00;99.90;;;;;;5105564;27;20043;-81
2022/08/31 04:29:04;;;;;;;3.33;0.80;;;12.90;99.90;;;;;;5093857;28;20048;-80
2022/08/31 04:31:30;;;;;;;2.22;0.65;;;12.90;99.90;;;;;;5100619;27;20062;-80
2022/08/31 04:33:56;;;;;;;2.20;0.80;;;12.90;99.90;;;;;;5082240;27;20036;-80
2022/08/31 04:36:24;;;;;;;1.75;0.77;;;12.80;99.90;;;;;;5104265;27;20062;-80
2022/08/31 04:38:53;;;;;;;2.53;0.80;;;12.80;99.90;;;;;;5118509;27;20036;-80
2022/08/31 04:41:21;;;;;;;1.92;1.10;;;12.80;99.90;;;;;;5088837;27;20061;-80
2022/08/31 04:43:50;;;;;;;2.67;0.93;;;12.80;99.90;;;;;;5105478;27;20111;-81
2022/08/31 04:46:21;;;;;;;2.67;0.90;;;12.70;99.90;;;;;;5123080;27;20050;-81
2022/08/31 04:48:46;;;;;;;;;;;12.70;99.90;;;;;;5096843;28;20122;-80
2022/08/31 04:51:25;;;;;;;1.85;0.85;;;12.70;99.90;;;;;;5084425;27;20430;-80
2022/08/31 04:53:52;;;;;;;2.22;0.85;;;12.60;99.90;;;;;;5099574;28;20035;-80
2022/08/31 04:56:24;;;;;;;2.05;0.80;;;12.60;99.90;;;;;;5099962;28;20047;-81
2022/08/31 04:58:55;;;;;;;2.22;0.68;;;12.60;99.90;;;;;;5097655;28;20398;-80
2022/08/31 05:01:24;;;;;;;3.50;1.05;;;12.60;99.90;;;;;;5094758;28;20517;-80
2022/08/31 05:03:52;;;;;;;1.13;0.80;;;12.60;99.90;;;;;;5091571;28;20048;-81
2022/08/31 05:06:20;;;;;;;1.77;1.13;;;12.60;99.90;;;;;;5073913;28;20035;-80
2022/08/31 05:08:47;;;;;;;1.33;0.80;;;12.70;99.90;;;;;;5106842;28;20404;-81
2022/08/31 05:11:18;;;;;;;1.30;0.70;;;12.80;99.90;;;;;;5101837;28;20153;-81
2022/08/31 05:13:44;;;;;;;2.67;0.98;;;12.70;99.90;;;;;;5094458;28;20051;-80
2022/08/31 05:16:11;;;;;;;2.60;0.98;;;12.60;99.90;;;;;;5109345;28;20035;-81
2022/08/31 05:18:39;;;;;;;2.30;1.13;;;12.70;99.90;;;;;;5095577;28;20051;-79
2022/08/31 05:21:28;;;;;;;1.55;0.82;;;12.70;99.90;;;;;;5116056;27;20039;-80
2022/08/31 05:24:00;;;;;;;2.20;0.88;;;12.70;99.90;;;;;;5104498;28;20078;-81
2022/08/31 05:26:29;;;;;;;1.85;0.88;;;12.70;99.90;;;;;;5092402;28;20054;-80
2022/08/31 05:28:57;;;;;;;2.45;1.15;;;12.80;99.90;;;;;;5111092;28;20039;-80
2022/08/31 05:31:23;;;;;;;2.83;0.90;;;12.80;99.90;;;;;;5109220;28;20065;-81
2022/08/31 05:33:50;;;;;;;3.05;1.10;;;12.80;99.90;;;;;;5079104;28;20100;-80
2022/08/31 05:36:16;;;;;;;2.03;0.80;;;12.90;99.90;;;;;;5106848;28;20075;-80
2022/08/31 05:38:42;;;;;;;3.10;0.85;;;12.90;99.90;;;;;;5098315;28;20046;-80
2022/08/31 05:41:09;;;;;;;1.67;1.00;;;12.90;99.90;;;;;;5102694;28;20084;-80
2022/08/31 05:43:37;;;;;;;1.25;0.68;;;13.00;99.90;;;;;;5098983;28;20134;-81
2022/08/31 05:46:08;;;;;;;2.08;0.88;;;13.00;99.90;;;;;;5094588;28;20498;-80
2022/08/31 05:48:35;;;;;;;2.10;0.90;;;13.00;99.90;;;;;;5090384;28;20054;-80
2022/08/31 05:51:06;;;;;;;2.85;1.17;;;13.00;99.90;;;;;;5098244;28;20458;-81
2022/08/31 05:53:33;;;;;;;2.67;1.00;;;13.10;99.90;;;;;;5092324;28;20520;-82
2022/08/31 05:56:05;;;;;;;2.85;1.00;;;13.10;99.90;;;;;;5087888;28;20112;-86
2022/08/31 05:58:39;;;;;;;1.17;0.77;;;13.20;99.90;;;;;;5093049;28;20085;-86
2022/08/31 06:01:16;;;;;;;3.45;1.10;;;13.30;99.90;;;;;;5096256;28;20130;-86
2022/08/31 06:03:43;;;;;;;2.13;0.80;;;13.40;99.90;;;;;;5093042;28;20117;-86
2022/08/31 06:06:10;;;;;;;2.83;1.00;;;13.40;99.90;;;;;;5119348;28;20065;-88
2022/08/31 06:08:37;;;;;;;1.13;0.70;;;13.50;99.90;;;;;;5067388;28;20069;-87
2022/08/31 06:11:04;;;;;;;3.75;1.25;;;13.50;99.90;;;;;;5081616;28;20031;-85
2022/08/31 06:13:30;;;;;;;1.88;1.10;;;13.60;99.90;;;;;;5099331;28;20120;-85
2022/08/31 06:15:56;;;;;;;2.67;1.00;;;13.70;99.90;;;;;;5080221;28;20056;-86
2022/08/31 06:18:23;;;;;;;2.00;1.10;;;13.70;99.90;;;;;;5106913;27;20051;-86
2022/08/31 06:20:49;;;;;;;1.80;0.80;;;13.80;99.90;;;;;;5112241;27;20066;-86
2022/08/31 06:23:16;;;;;;;3.35;1.08;;;13.80;99.90;;;;;;5092616;27;20058;-87
2022/08/31 06:25:42;;;;;;;2.33;1.10;;;13.90;99.90;;;;;;5087781;28;20039;-85
2022/08/31 06:28:10;;;;;;;0.95;0.77;;;14.00;99.90;;;;;;5081610;28;20189;-86
2022/08/31 06:30:39;;;;;;;2.30;1.00;;;14.20;99.90;;;;;;5088407;28;20043;-86
2022/08/31 06:33:06;;;;;;;3.40;1.17;;;14.30;99.90;;;;;;5125458;27;20058;-85
2022/08/31 06:35:32;;;;;;;1.02;0.63;;;14.30;99.90;;;;;;5106799;27;20047;-88
2022/08/31 06:37:58;;;;;;;1.35;0.80;;;14.50;99.90;;;;;;5108114;27;20038;-87
2022/08/31 06:40:28;;;;;;;3.20;0.90;;;14.50;99.90;;;;;;5081363;27;20124;-86
2022/08/31 06:42:54;;;;;;;1.60;0.70;;;14.60;99.90;;;;;;5094036;27;20047;-87
2022/08/31 06:45:20;;;;;;;2.30;1.17;;;14.70;99.90;;;;;;5064904;28;20052;-87
2022/08/31 06:47:46;;;;;;;2.95;0.93;;;14.80;99.90;;;;;;5090986;28;20069;-87
2022/08/31 06:50:12;;;;;;;2.35;1.00;;;14.90;99.90;;;;;;5073167;27;20104;-86
2022/08/31 06:52:38;;;;;;;3.92;1.33;;;15.00;99.90;;;;;;5111295;27;20107;-87
2022/08/31 06:55:04;;;;;;;3.05;1.13;;;15.10;99.90;;;;;;5083408;27;20067;-87
2022/08/31 06:57:31;;;;;;;3.20;1.05;;;15.20;99.90;;;;;;5066484;27;20118;-86
2022/08/31 06:59:57;;;;;;;2.22;0.70;;;15.20;99.90;;;;;;5114280;27;20665;-87
2022/08/31 07:02:25;;;;;;;3.15;1.10;;;15.30;99.90;;;;;;5089321;27;20466;-86
2022/08/31 07:04:51;;;;;;;2.70;1.10;;;15.40;99.90;;;;;;5090763;28;20554;-87
2022/08/31 07:07:17;;;;;;;4.63;0.93;;;15.50;99.90;;;;;;5092713;27;20096;-85
2022/08/31 07:09:43;;;;;;;3.05;0.80;;;15.60;99.90;;;;;;5074664;27;20657;-88
2022/08/31 07:12:09;;;;;;;2.10;0.77;;;15.60;99.90;;;;;;5065017;28;20123;-87
2022/08/31 07:14:35;;;;;;;2.90;0.95;;;15.70;99.90;;;;;;5085471;27;20138;-87
2022/08/31 07:17:04;;;;;;;4.15;1.00;;;15.70;99.90;;;;;;5072521;27;20031;-88
2022/08/31 07:19:31;;;;;;;2.35;0.85;;;15.80;99.90;;;;;;5077511;27;20497;-88
2022/08/31 07:21:59;;;;;;;2.53;1.13;;;15.90;99.90;;;;;;5089648;27;20138;-88
2022/08/31 07:24:29;;;;;;;6.03;0.90;;;16.10;99.90;;;;;;5096741;27;20054;-85
2022/08/31 07:27:11;;;;;;;2.60;1.00;;;16.20;99.90;;;;;;5122467;27;20080;-89
2022/08/31 07:29:41;;;;;;;2.13;0.98;;;16.40;99.90;;;;;;5100646;27;20047;-86
2022/08/31 07:32:12;;;;;;;2.13;0.80;;;16.40;99.90;;;;;;5100867;27;20031;-86
2022/08/31 07:34:39;;;;;;;2.65;0.75;;;16.50;99.90;;;;;;5100824;27;20044;-85
2022/08/31 07:42:42;;;;;;;1.73;0.68;;;16.80;99.90;;;;;;5116385;27;20093;-87
2022/08/31 07:45:18;;;;;;;1.25;0.70;;;16.90;99.90;;;;;;5117602;27;20047;-88
2022/08/31 07:47:48;;;;;;;2.92;0.80;;;17.00;99.90;;;;;;5114728;27;20043;-83
2022/08/31 07:50:17;;;;;;;2.83;0.70;;;17.10;99.90;;;;;;5088281;28;20051;-87
2022/08/31 07:52:47;;;;;;;2.15;0.70;;;17.20;99.90;;;;;;5102858;27;20704;-86
2022/08/31 07:55:13;;;;;;;;;;;17.40;99.90;;;;;;5103107;27;20047;-84
2022/08/31 07:57:43;;;;;;;3.45;0.70;;;17.50;99.90;;;;;;5104018;27;19919;-89
2022/08/31 08:00:18;;;;;;;1.60;0.80;;;17.60;99.90;;;;;;5100821;27;20055;-86
2022/08/31 08:02:47;;;;;;;2.05;0.55;;;17.60;99.90;;;;;;5098210;27;20448;-81
2022/08/31 08:05:21;;;;;;;2.55;0.70;;;17.70;99.90;;;;;;5101829;28;20148;-80
2022/08/31 08:07:53;;;;;;;1.48;0.73;;;17.80;99.90;;;;;;5097198;27;20047;-88
2022/08/31 08:10:23;;;;;;;2.20;0.70;;;17.80;99.90;;;;;;5101081;28;20036;-89
2022/08/31 08:12:56;;;;;;;1.70;0.80;;;17.90;99.90;;;;;;5099813;27;20111;-85
2022/08/31 08:15:24;;;;;;;2.83;1.05;;;18.10;99.90;;;;;;5097352;27;20051;-89
2022/08/31 08:17:52;;;;;;;3.80;0.90;;;18.20;99.90;;;;;;5114963;27;20046;-88
2022/08/31 08:20:18;;;;;;;1.67;0.60;;;18.30;99.80;;;;;;5105075;27;20089;-85
2022/08/31 08:22:45;;;;;;;2.67;0.60;;;18.30;99.80;;;;;;5114559;27;20075;-88
2022/08/31 08:25:11;;;;;;;3.17;1.00;;;18.40;99.90;;;;;;5102789;28;20074;-84
2022/08/31 08:27:37;;;;;;;3.10;0.68;;;18.50;99.90;;;;;;5111652;27;20050;-82
2022/08/31 08:30:05;;;;;;;4.80;0.70;;;18.60;99.70;;;;;;5103398;27;20158;-83
2022/08/31 08:32:35;;;;;;;3.38;0.90;;;18.80;99.20;;;;;;5096905;27;20121;-84
2022/08/31 08:35:01;;;;;;;;;;;18.80;98.10;;;;;;5117501;27;20110;-88
2022/08/31 08:37:30;;;;;;;2.60;0.57;;;18.90;97.70;;;;;;5112006;27;19934;-87
2022/08/31 08:39:58;;;;;;;1.65;0.50;;;18.90;96.80;;;;;;5099055;28;20039;-85
2022/08/31 08:42:24;;;;;;;3.17;0.85;;;18.90;97.30;;;;;;5090434;27;20082;-88
2022/08/31 08:44:54;;;;;;;2.17;0.90;;;19.10;96.80;;;;;;5098918;27;20071;-85
2022/08/31 08:47:25;;;;;;;3.28;0.85;;;19.10;95.60;;;;;;5077973;27;20105;-86
2022/08/31 08:49:54;;;;;;;3.13;0.80;;;19.10;96.10;;;;;;5097439;27;20041;-86
2022/08/31 08:52:30;;;;;;;2.45;0.80;;;19.10;96.50;;;;;;5099578;27;20051;-88
2022/08/31 08:55:01;;;;;;;3.38;0.60;;;19.30;95.50;;;;;;5096804;28;20055;-82
2022/08/31 08:57:33;;;;;;;3.85;0.73;;;19.40;94.60;;;;;;5097592;28;20120;-81
2022/08/31 09:00:06;;;;;;;2.28;0.60;;;19.40;94.70;;;;;;5080415;28;20063;-77
2022/08/31 09:02:41;;;;;;;3.30;0.80;;;19.50;93.60;;;;;;5111770;27;20486;-88
2022/08/31 09:05:45;;;;;;;2.72;0.50;;;19.50;93.20;;;;;;5117590;28;20035;-86
2022/08/31 09:08:41;;;;;;;2.28;0.60;;;19.50;93.50;;;;;;5063421;28;20059;-88
2022/08/31 09:11:34;;;;;;;2.63;0.70;;;19.50;91.80;;;;;;5081733;28;20429;-81
2022/08/31 09:14:19;;;;;;;2.15;0.52;;;19.60;91.50;;;;;;5095673;28;20047;-84
2022/08/31 09:16:55;;;;;;;4.80;0.60;;;19.70;91.50;;;;;;5110294;28;20044;-87
2022/08/31 09:19:21;;;;;;;1.65;0.57;;;19.80;90.80;;;;;;5102976;28;20138;-87
2022/08/31 09:21:51;;;;;;;2.88;0.70;;;19.80;90.40;;;;;;5084900;28;20507;-86
2022/08/31 09:24:21;;;;;;;;;;;19.80;89.90;;;;;;5098463;28;20043;-85
2022/08/31 09:27:16;;;;;;;1.23;0.50;;;19.80;88.80;;;;;;5100009;28;19927;-81
2022/08/31 09:29:55;;;;;;;2.60;0.70;;;19.90;88.00;;;;;;5116561;28;20446;-87
2022/08/31 09:32:24;;;;;;;3.38;0.50;;;20.00;88.50;;;;;;5097006;28;20050;-78
2022/08/31 09:35:08;;;;;;;3.47;0.75;;;20.10;85.60;;;;;;5095647;28;20516;-84
2022/08/31 09:37:47;;;;;;;1.30;0.43;;;20.20;85.70;;;;;;5119434;27;20115;-81
2022/08/31 09:40:19;;;;;;;3.15;0.60;;;20.30;85.00;;;;;;5096393;28;20627;-86
2022/08/31 09:43:21;;;;;;;2.95;0.52;;;20.40;83.50;;;;;;5096003;28;20059;-84
2022/08/31 09:46:10;;;;;;;1.63;0.50;;;20.50;82.90;;;;;;5113834;27;20048;-88
2022/08/31 09:48:45;;;;;;;3.80;0.60;;;20.50;81.00;;;;;;5093530;28;20035;-87
2022/08/31 09:51:27;;;;;;;1.30;0.43;;;20.60;80.60;;;;;;5093988;28;20035;-82
2022/08/31 09:57:08;;;;;;;2.72;0.60;;;20.50;80.00;;;;;;5024092;28;20740;-83
2022/08/31 09:59:44;;;;;;;2.03;0.50;;;20.60;81.90;;;;;;5104638;27;20484;-87
2022/08/31 10:02:25;;;;;;;3.10;0.47;;;20.80;79.60;;;;;;5086702;28;20543;-79
2022/08/31 10:05:03;;;;;;;3.45;0.68;;;21.00;77.00;;;;;;5087296;28;20398;-84
2022/08/31 10:07:59;;;;;;;1.75;0.57;;;21.00;75.50;;;;;;5115858;27;20046;-85
2022/08/31 10:10:31;;;;;;;0.95;0.40;;;21.10;73.30;;;;;;5115174;27;20054;-86
2022/08/31 10:13:16;;;;;;;1.50;0.40;;;21.00;69.20;;;;;;5093494;28;20044;-86
2022/08/31 10:16:01;;;;;;;2.50;0.70;;;21.00;71.80;;;;;;5115344;27;20053;-83
2022/08/31 10:18:42;;;;;;;1.60;0.60;;;21.00;71.50;;;;;;5114979;27;20082;-86
2022/08/31 10:21:25;;;;;;;4.53;0.60;;;21.00;72.80;;;;;;5101968;27;20484;-78
2022/08/31 10:24:32;;;;;;;2.03;0.60;;;21.20;72.50;;;;;;5103137;27;20061;-84
2022/08/31 10:27:04;;;;;;;1.98;0.45;;;21.40;70.50;;;;;;5095243;27;20035;-83
2022/08/31 10:29:38;;;;;;;2.85;0.50;;;21.40;69.80;;;;;;5104823;27;20089;-86
2022/08/31 10:32:22;;;;;;;3.95;0.50;;;21.30;70.60;;;;;;5112886;27;20111;-84
2022/08/31 10:35:06;;;;;;;1.73;0.40;;;21.50;72.20;;;;;;5115517;27;20045;-85
2022/08/31 10:38:07;;;;;;;1.92;0.60;;;21.50;71.40;;;;;;5100374;27;20149;-83
2022/08/31 10:41:00;;;;;;;1.63;0.60;;;21.60;71.70;;;;;;5110469;27;20458;-81
2022/08/31 10:44:01;;;;;;;1.58;0.50;;;21.70;72.00;;;;;;5106928;27;20051;-82
2022/08/31 10:46:33;;;;;;;2.22;0.55;;;21.80;74.40;;;;;;5094342;27;21762;-85
2022/08/31 10:49:02;;;;;;;2.25;0.50;;;21.80;68.80;;;;;;5105255;27;20044;-85
2022/08/31 10:51:49;;;;;;;1.45;0.47;;;21.70;68.50;;;;;;5109401;27;20040;-83
2022/08/31 10:54:39;;;;;;;1.30;0.50;;;21.70;67.50;;;;;;5098381;27;20057;-82
2022/08/31 10:57:37;;;;;;;2.67;0.60;;;21.70;67.70;;;;;;5113944;27;20097;-83
2022/08/31 11:00:40;;;;;;;2.97;0.68;;;21.70;69.40;;;;;;5116256;27;20071;-85
2022/08/31 11:03:33;;;;;;;1.08;0.50;;;21.70;68.90;;;;;;5112715;27;20039;-86
2022/08/31 11:06:27;;;;;;;3.13;0.50;;;21.80;67.00;;;;;;5073377;27;21364;-83
2022/08/31 11:09:13;;;;;;;2.75;0.50;;;21.80;66.70;;;;;;5096750;27;20046;-82
2022/08/31 11:11:46;;;;;;;1.25;0.40;;;21.80;65.80;;;;;;5102394;27;20118;-86
2022/08/31 11:14:44;;;;;;;2.60;0.50;;;21.70;67.40;;;;;;5095002;27;20118;-83
2022/08/31 11:18:01;;;;;;;2.05;0.60;;;21.80;67.30;;;;;;5078738;27;20103;-88
2022/08/31 11:20:39;;;;;;;3.03;0.50;;;21.80;66.70;;;;;;5080574;27;20734;-86
2022/08/31 11:23:30;;;;;;;2.80;0.52;;;21.90;65.60;;;;;;5113680;27;20066;-77
2022/08/31 11:26:15;;;;;;;2.20;0.80;;;21.90;64.30;;;;;;5114608;27;20494;-85
2022/08/31 11:29:08;;;;;;;1.23;0.50;;;22.00;65.90;;;;;;5079092;27;20051;-86
2022/08/31 11:31:37;;;;;;;1.83;0.40;;;22.20;65.00;;;;;;5096992;27;20513;-86
2022/08/31 11:34:24;;;;;;;0.93;0.60;;;22.30;64.30;;;;;;5133857;27;20565;-83
2022/08/31 11:37:06;;;;;;;2.17;0.73;;;22.30;65.50;;;;;;5104559;27;20585;-85
2022/08/31 11:39:43;;;;;;;3.70;0.40;;;22.40;64.80;;;;;;5103443;27;20260;-80
2022/08/31 11:42:36;;;;;;;2.63;0.50;;;22.40;64.30;;;;;;5096463;27;20039;-84
2022/08/31 11:45:06;;;;;;;3.03;0.60;;;22.50;61.40;;;;;;5064836;28;20051;-81
2022/08/31 11:47:41;;;;;;;2.38;0.45;;;22.60;61.20;;;;;;5092925;28;20107;-82
2022/08/31 11:50:21;;;;;;;1.95;0.50;;;22.60;60.70;;;;;;5093907;28;20039;-86
2022/08/31 11:52:52;;;;;;;1.92;0.45;;;22.50;61.80;;;;;;5073430;28;20040;-80
2022/08/31 11:55:29;;;;;;;1.13;0.47;;;22.60;62.80;;;;;;5078646;28;20418;-82
2022/08/31 11:58:14;;;;;;;2.05;0.50;;;22.70;61.60;;;;;;5062973;28;20043;-84
2022/08/31 12:00:48;;;;;;;2.20;0.50;;;22.60;59.70;;;;;;5071561;28;20559;-80
2022/08/31 12:03:35;;;;;;;2.58;0.52;;;22.60;59.70;;;;;;5091372;28;20048;-84
2022/08/31 12:06:28;;;;;;;1.30;0.45;;;22.60;58.60;;;;;;5081584;28;20075;-84
2022/08/31 12:09:33;;;;;;;1.05;0.30;;;22.60;58.70;;;;;;5036384;28;20044;-85
2022/08/31 12:12:21;;;;;;;11.43;10.68;;;22.60;60.00;;;;;;5089127;28;20043;-85
2022/08/31 12:15:25;;;;;;;2.00;0.30;;;22.80;58.10;;;;;;5072750;28;20047;-84
2022/08/31 12:18:27;;;;;;;3.78;0.85;;;22.80;58.70;;;;;;5080024;28;20043;-84
2022/08/31 12:24:29;;;;;;;1.52;0.40;;;23.00;58.60;;;;;;5087493;28;20069;-83
2022/08/31 12:27:16;;;;;;;0.77;0.40;;;23.00;60.00;;;;;;5080800;28;20035;-83
2022/08/31 12:29:42;;;;;;;1.60;0.50;;;23.20;57.10;;;;;;5079844;28;20048;-80
2022/08/31 12:32:11;;;;;;;1.27;0.30;;;23.40;56.80;;;;;;5061242;28;20046;-84
2022/08/31 12:34:44;;;;;;;3.10;0.50;;;23.60;55.40;;;;;;5071154;28;20052;-84
2022/08/31 12:37:24;;;;;;;1.77;0.40;;;23.50;55.50;;;;;;5091362;28;20055;-84
2022/08/31 12:40:13;;;;;;;1.60;0.40;;;23.60;55.70;;;;;;5081513;28;20126;-83
2022/08/31 12:42:56;;;;;;;1.88;0.40;;;23.60;53.30;;;;;;5063079;27;20035;-81
2022/08/31 12:45:31;;;;;;;0.93;0.45;;;23.50;52.70;;;;;;5140606;27;20047;-81
2022/08/31 12:48:00;;;;;;;0.63;0.40;;;23.40;52.10;;;;;;5099882;27;20175;-80
2022/08/31 12:50:52;;;;;;;1.80;0.30;;;23.50;53.00;;;;;;5099121;27;20039;-83
2022/08/31 12:53:51;;;;;;;1.83;0.40;;;23.50;52.80;;;;;;5118143;27;20038;-83
2022/08/31 12:56:44;;;;;;;2.13;0.40;;;23.60;52.50;;;;;;5121222;27;20624;-82
2022/08/31 12:59:30;;;;;;;3.80;0.50;;;23.50;53.20;;;;;;5101849;27;20134;-83
2022/08/31 13:01:58;;;;;;;2.03;0.40;;;23.50;54.30;;;;;;5102914;27;20149;-83
2022/08/31 13:04:25;;;;;;;0.65;0.30;;;23.40;52.10;;;;;;5088652;27;20549;-81
2022/08/31 13:06:51;;;;;;;1.48;0.50;;;23.40;51.20;;;;;;5108464;27;20579;-83
2022/08/31 13:09:23;;;;;;;2.88;0.50;;;23.30;51.70;;;;;;5074571;27;20043;-82
2022/08/31 13:11:51;;;;;;;2.17;0.40;;;23.20;53.70;;;;;;5100378;27;20439;-82
2022/08/31 13:14:22;;;;;;;2.53;0.73;;;23.20;53.80;;;;;;5101358;27;20034;-82
2022/08/31 13:16:57;;;;;;;2.05;0.43;;;23.30;53.80;;;;;;5115891;27;20405;-83
2022/08/31 13:19:32;;;;;;;0.52;0.40;;;23.30;53.90;;;;;;5104188;27;20512;-82
2022/08/31 13:22:04;;;;;;;1.85;0.50;;;23.30;53.60;;;;;;5100804;27;20042;-84
2022/08/31 13:24:43;;;;;;;1.10;0.32;;;23.50;52.60;;;;;;5103824;27;20332;-80
2022/08/31 13:27:29;;;;;;;2.03;0.43;;;23.50;50.30;;;;;;5111861;27;20050;-78
2022/08/31 13:30:08;;;;;;;1.70;0.55;;;23.40;50.90;;;;;;5118145;27;20035;-81
2022/08/31 13:32:34;;;;;;;2.15;0.60;;;23.20;52.30;;;;;;5121249;27;20130;-83